createdAt,value
2018-10-19T00:00:25.235Z,15.10
2018-10-19T00:02:54.273Z,15.37
2018-10-19T00:05:22.843Z,12.83
2018-10-19T00:07:51.448Z,13.17
2018-10-19T00:10:20.000Z,12.90
2018-10-19T00:12:48.565Z,12.57
2018-10-19T00:15:17.235Z,9.83
2018-10-19T00:17:45.556Z,10.40
2018-10-19T00:20:15.172Z,15.27
2018-10-19T00:22:43.705Z,10.00
2018-10-19T00:25:12.195Z,11.60
2018-10-19T00:27:40.822Z,16.20
2018-10-19T00:30:10.502Z,13.73
2018-10-19T00:32:39.054Z,15.90
2018-10-19T00:35:08.412Z,14.33
2018-10-19T00:37:37.000Z,9.67
2018-10-19T00:40:06.126Z,16.03
2018-10-19T00:42:34.648Z,10.73
2018-10-19T00:45:03.227Z,13.77
2018-10-19T00:47:31.746Z,14.20
2018-10-19T00:50:00.320Z,10.63
2018-10-19T00:52:28.829Z,12.47
2018-10-19T00:54:58.050Z,14.60
2018-10-19T00:57:26.646Z,16.20
2018-10-19T00:59:55.170Z,15.87
2018-10-19T01:02:23.678Z,12.90
2018-10-19T01:04:52.243Z,12.97
2018-10-19T01:07:20.769Z,13.87
2018-10-19T01:09:49.412Z,13.63
2018-10-19T01:12:17.924Z,12.77
2018-10-19T01:14:46.449Z,12.50
2018-10-19T01:17:15.029Z,10.70
2018-10-19T01:19:43.612Z,13.87
2018-10-19T01:22:12.115Z,11.80
2018-10-19T01:24:40.633Z,11.33
2018-10-19T01:27:09.199Z,15.33
2018-10-19T01:29:37.779Z,11.97
2018-10-19T01:32:06.357Z,13.33
2018-10-19T01:34:34.940Z,10.33
2018-10-19T01:37:05.071Z,12.80
2018-10-19T01:39:33.588Z,11.47
2018-10-19T01:42:02.088Z,11.20
2018-10-19T01:44:32.534Z,12.77
2018-10-19T01:47:01.095Z,13.47
2018-10-19T01:49:29.557Z,15.43
2018-10-19T01:51:59.900Z,11.23
2018-10-19T01:54:28.391Z,11.17
2018-10-19T01:56:56.925Z,12.50
2018-10-19T01:59:25.441Z,12.20
2018-10-19T02:01:53.936Z,11.50
2018-10-19T02:04:22.494Z,10.97
2018-10-19T02:06:51.057Z,13.17
2018-10-19T02:09:19.546Z,9.30
2018-10-19T02:11:48.060Z,10.73
2018-10-19T02:14:16.555Z,9.00
2018-10-19T02:16:46.153Z,12.90
2018-10-19T02:19:14.629Z,11.73
2018-10-19T02:21:43.600Z,10.37
2018-10-19T02:24:12.771Z,13.80
2018-10-19T02:26:41.570Z,10.77
2018-10-19T02:29:10.223Z,10.03
2018-10-19T02:31:38.677Z,12.47
2018-10-19T02:34:07.425Z,11.23
2018-10-19T02:36:35.956Z,14.93
2018-10-19T02:39:05.746Z,11.77
2018-10-19T02:41:34.597Z,12.67
2018-10-19T02:44:03.290Z,13.17
2018-10-19T02:46:31.884Z,9.90
2018-10-19T02:49:00.522Z,13.87
2018-10-19T02:51:29.053Z,15.00
2018-10-19T02:53:57.564Z,15.47
2018-10-19T02:56:26.119Z,12.13
2018-10-19T02:58:54.711Z,12.47
2018-10-19T03:01:23.269Z,14.73
2018-10-19T03:03:51.775Z,13.83
2018-10-19T03:06:20.343Z,11.73
2018-10-19T03:08:48.834Z,12.77
2018-10-19T03:11:17.477Z,11.13
2018-10-19T03:13:45.941Z,12.03
2018-10-19T03:16:14.453Z,16.47
2018-10-19T03:18:42.969Z,13.63
2018-10-19T03:21:11.540Z,11.33
2018-10-19T03:23:40.224Z,13.33
2018-10-19T03:26:09.542Z,14.00
2018-10-19T03:28:38.148Z,13.73
2018-10-19T03:31:06.921Z,11.80
2018-10-19T03:33:35.410Z,11.50
2018-10-19T03:36:04.162Z,11.33
2018-10-19T03:38:32.767Z,14.00
2018-10-19T03:41:01.279Z,13.83
2018-10-19T03:43:29.807Z,11.80
2018-10-19T03:45:58.330Z,11.07
2018-10-19T03:48:26.995Z,15.53
2018-10-19T03:50:55.672Z,12.33
2018-10-19T03:53:24.130Z,11.70
2018-10-19T03:55:52.752Z,12.27
2018-10-19T03:58:21.262Z,13.70
2018-10-19T04:00:49.920Z,12.87
2018-10-19T04:03:18.712Z,15.93
2018-10-19T04:05:47.134Z,15.33
2018-10-19T04:08:15.656Z,13.87
2018-10-19T04:10:44.140Z,14.77
2018-10-19T04:13:12.946Z,14.67
2018-10-19T04:15:41.538Z,17.67
2018-10-19T04:18:10.090Z,15.27
2018-10-19T04:20:38.700Z,13.87
2018-10-19T04:23:08.456Z,18.20
2018-10-19T04:25:38.326Z,16.20
2018-10-19T04:28:07.008Z,14.43
2018-10-19T04:30:36.844Z,15.10
2018-10-19T04:33:06.067Z,17.47
2018-10-19T04:35:34.705Z,14.60
2018-10-19T04:38:03.816Z,15.33
2018-10-19T04:40:32.326Z,16.60
2018-10-19T04:43:01.130Z,15.63
2018-10-19T04:45:29.645Z,15.27
2018-10-19T04:47:58.258Z,17.10
2018-10-19T04:50:27.381Z,14.50
2018-10-19T04:52:55.982Z,14.87
2018-10-19T04:55:24.459Z,15.57
2018-10-19T04:57:53.099Z,14.57
2018-10-19T05:00:22.298Z,13.87
2018-10-19T05:02:51.757Z,16.90
2018-10-19T05:05:20.801Z,14.43
2018-10-19T05:07:49.114Z,15.07
2018-10-19T05:10:17.659Z,16.17
2018-10-19T05:12:46.188Z,16.80
2018-10-19T05:15:14.813Z,15.53
2018-10-19T05:17:43.331Z,16.33
2018-10-19T05:20:13.444Z,16.23
2018-10-19T05:22:41.871Z,15.60
2018-10-19T05:25:11.885Z,15.87
2018-10-19T05:27:40.615Z,15.77
2018-10-19T05:30:11.181Z,19.87
2018-10-19T05:32:40.538Z,20.97
2018-10-19T05:35:09.296Z,17.63
2018-10-19T05:37:38.947Z,14.57
2018-10-19T05:40:08.810Z,18.70
2018-10-19T05:42:37.645Z,18.77
2018-10-19T05:45:08.123Z,22.77
2018-10-19T05:47:36.663Z,17.40
2018-10-19T05:50:06.155Z,24.77
2018-10-19T05:52:34.877Z,24.80
2018-10-19T05:55:03.463Z,19.70
2018-10-19T05:57:32.237Z,24.03
2018-10-19T06:00:01.647Z,26.13
2018-10-19T06:02:30.868Z,26.37
2018-10-19T06:04:59.403Z,28.47
2018-10-19T06:07:28.078Z,24.00
2018-10-19T06:09:56.629Z,26.57
2018-10-19T06:12:25.176Z,26.30
2018-10-19T06:14:53.727Z,30.83
2018-10-19T06:17:22.356Z,30.20
2018-10-19T06:19:50.943Z,36.97
2018-10-19T06:22:19.566Z,24.20
2018-10-19T06:24:48.133Z,30.30
2018-10-19T06:27:16.609Z,27.30
2018-10-19T06:29:45.279Z,29.93
2018-10-19T06:32:13.779Z,27.00
2018-10-19T06:34:42.271Z,29.83
2018-10-19T06:37:10.775Z,34.03
2018-10-19T06:39:39.293Z,30.53
2018-10-19T06:42:07.818Z,32.00
2018-10-19T06:44:38.823Z,29.60
2018-10-19T06:47:07.788Z,28.07
2018-10-19T06:49:36.507Z,27.47
2018-10-19T06:52:05.208Z,34.37
2018-10-19T06:54:33.720Z,28.87
2018-10-19T06:57:02.346Z,30.53
2018-10-19T06:59:30.993Z,28.40
2018-10-19T07:01:59.527Z,30.87
2018-10-19T07:04:28.084Z,27.40
2018-10-19T07:06:56.687Z,31.90
2018-10-19T07:09:25.254Z,30.50
2018-10-19T07:11:54.903Z,34.27
2018-10-19T07:14:24.604Z,37.00
2018-10-19T07:16:53.183Z,28.27
2018-10-19T07:19:21.715Z,32.90
2018-10-19T07:21:50.369Z,30.20
2018-10-19T07:24:20.046Z,37.00
2018-10-19T07:26:49.520Z,40.00
2018-10-19T07:29:18.173Z,39.17
2018-10-19T07:31:46.606Z,39.20
2018-10-19T07:34:15.125Z,35.67
2018-10-19T07:36:43.704Z,39.67
2018-10-19T07:39:12.283Z,40.03
2018-10-19T07:41:40.818Z,39.80
2018-10-19T07:44:09.372Z,38.20
2018-10-19T07:46:37.914Z,39.93
2018-10-19T07:49:06.460Z,48.50
2018-10-19T07:51:34.968Z,42.27
2018-10-19T07:54:03.537Z,41.13
2018-10-19T07:56:32.018Z,41.70
2018-10-19T07:59:00.583Z,42.53
2018-10-19T08:01:29.140Z,43.50
2018-10-19T08:03:57.668Z,43.60
2018-10-19T08:06:26.188Z,41.33
2018-10-19T08:08:54.801Z,50.80
2018-10-19T08:11:23.573Z,53.23
2018-10-19T08:13:52.476Z,56.30
2018-10-19T08:16:21.088Z,55.33
2018-10-19T08:18:50.255Z,52.63
2018-10-19T08:21:18.833Z,50.97
2018-10-19T08:23:47.429Z,48.07
2018-10-19T08:26:16.007Z,48.87
2018-10-19T08:28:44.542Z,50.07
2018-10-19T08:31:13.059Z,44.70
2018-10-19T08:33:41.624Z,49.23
2018-10-19T08:36:10.285Z,45.93
2018-10-19T08:38:38.801Z,39.43
2018-10-19T08:41:07.476Z,45.93
2018-10-19T08:43:35.963Z,43.83
2018-10-19T08:46:09.799Z,42.93
2018-10-19T08:48:38.356Z,45.60
2018-10-19T08:51:08.061Z,42.97
2018-10-19T08:53:36.624Z,48.80
2018-10-19T08:56:05.558Z,47.30
2018-10-19T08:58:34.165Z,43.40
2018-10-19T09:01:02.793Z,43.33
2018-10-19T09:03:31.375Z,45.40
2018-10-19T09:05:59.882Z,46.57
2018-10-19T09:08:28.402Z,44.90
2018-10-19T09:10:57.035Z,44.23
2018-10-19T09:13:25.482Z,42.70
2018-10-19T09:15:54.579Z,42.17
2018-10-19T09:18:23.201Z,45.53
2018-10-19T09:20:51.761Z,49.33
2018-10-19T09:23:20.305Z,51.40
2018-10-19T09:25:48.852Z,53.47
2018-10-19T09:28:17.365Z,50.80
2018-10-19T09:30:45.872Z,53.13
2018-10-19T09:33:14.492Z,53.53
2018-10-19T09:35:43.106Z,54.47
2018-10-19T09:38:11.807Z,55.97
2018-10-19T09:40:40.360Z,51.77
2018-10-19T09:43:08.904Z,50.57
2018-10-19T09:45:37.421Z,54.77
2018-10-19T09:48:05.960Z,56.20
2018-10-19T09:50:34.805Z,53.47
2018-10-19T09:53:03.455Z,51.03
2018-10-19T09:55:32.736Z,46.77
2018-10-19T09:58:01.296Z,50.10
2018-10-19T10:00:35.082Z,49.93
2018-10-19T10:03:03.600Z,51.33
2018-10-19T10:05:32.605Z,50.40
2018-10-19T10:08:01.206Z,49.77
2018-10-19T10:10:37.001Z,46.10
2018-10-19T10:13:05.744Z,48.37
2018-10-19T10:15:34.325Z,44.63
2018-10-19T10:18:03.339Z,46.03
2018-10-19T10:20:31.870Z,45.10
2018-10-19T10:23:00.384Z,46.00
2018-10-19T10:25:29.019Z,44.27
2018-10-19T10:27:57.590Z,42.03
2018-10-19T10:30:26.234Z,45.57
2018-10-19T10:32:54.751Z,43.13
2018-10-19T10:35:23.284Z,41.97
2018-10-19T10:37:51.889Z,42.90
2018-10-19T10:40:20.511Z,40.50
2018-10-19T10:42:49.039Z,55.87
2018-10-19T10:45:17.540Z,43.03
2018-10-19T10:47:46.052Z,36.13
2018-10-19T10:50:14.664Z,40.93
2018-10-19T10:52:43.231Z,37.03
2018-10-19T10:55:11.766Z,40.40
2018-10-19T10:57:40.308Z,42.93
2018-10-19T11:00:08.945Z,40.67
2018-10-19T11:02:37.478Z,41.13
2018-10-19T11:05:06.895Z,42.37
2018-10-19T11:07:35.588Z,38.17
2018-10-19T11:10:04.080Z,40.73
2018-10-19T11:12:32.615Z,41.97
2018-10-19T11:15:01.230Z,35.80
2018-10-19T11:17:29.740Z,41.07
2018-10-19T11:19:58.239Z,36.70
2018-10-19T11:22:26.766Z,36.13
2018-10-19T11:24:55.317Z,36.83
2018-10-19T11:27:23.947Z,34.13
2018-10-19T11:29:52.449Z,33.47
2018-10-19T11:32:20.960Z,35.80
2018-10-19T11:34:49.479Z,34.70
2018-10-19T11:37:18.107Z,41.23
2018-10-19T11:39:58.371Z,34.20
2018-10-19T11:42:26.888Z,33.00
2018-10-19T11:44:55.385Z,39.40
2018-10-19T11:47:23.915Z,35.67
2018-10-19T11:49:52.577Z,37.97
2018-10-19T11:52:21.145Z,34.53
2018-10-19T11:54:49.740Z,34.67
2018-10-19T11:57:18.268Z,31.70
2018-10-19T11:59:46.820Z,31.37
2018-10-19T12:02:15.961Z,33.63
2018-10-19T12:04:44.503Z,33.03
2018-10-19T12:07:13.175Z,32.87
2018-10-19T12:09:41.748Z,31.47
2018-10-19T12:12:10.249Z,34.30
2018-10-19T12:14:38.769Z,34.10
2018-10-19T12:17:07.305Z,34.63
2018-10-19T12:19:36.197Z,35.20
2018-10-19T12:22:04.747Z,34.90
2018-10-19T12:24:33.275Z,29.63
2018-10-19T12:27:01.836Z,30.53
2018-10-19T12:29:30.359Z,28.63
2018-10-19T12:31:58.899Z,30.47
2018-10-19T12:34:27.466Z,32.27
2018-10-19T12:36:56.085Z,32.13
2018-10-19T12:39:24.611Z,30.90
2018-10-19T12:41:53.141Z,30.23
2018-10-19T12:44:21.713Z,28.13
2018-10-19T12:47:01.623Z,29.20
2018-10-19T12:49:30.181Z,26.50
2018-10-19T12:51:58.843Z,23.63
2018-10-19T12:54:29.145Z,23.27
2018-10-19T12:56:57.671Z,24.73
2018-10-19T12:59:26.254Z,22.40
2018-10-19T13:01:54.818Z,23.20
2018-10-19T13:04:26.247Z,25.57
2018-10-19T13:06:54.813Z,20.60
2018-10-19T13:09:23.417Z,20.67
2018-10-19T13:11:51.987Z,23.43
2018-10-19T13:14:20.505Z,19.97
2018-10-19T13:16:49.010Z,20.67
2018-10-19T13:19:17.506Z,23.17
2018-10-19T13:21:46.065Z,24.47
2018-10-19T13:24:14.782Z,23.33
2018-10-19T13:26:43.181Z,19.10
2018-10-19T13:29:11.734Z,18.90
2018-10-19T13:31:40.768Z,16.77
2018-10-19T13:34:09.284Z,19.37
2018-10-19T13:36:37.827Z,18.60
2018-10-19T13:39:08.757Z,18.77
2018-10-19T13:41:37.424Z,18.77
2018-10-19T13:44:06.052Z,20.80
2018-10-19T13:46:34.719Z,21.87
2018-10-19T13:49:03.338Z,20.80
2018-10-19T13:51:32.042Z,18.73
2018-10-19T13:54:00.560Z,22.17
2018-10-19T13:56:29.104Z,19.07
2018-10-19T13:58:57.665Z,19.67
2018-10-19T14:01:26.234Z,18.10
2018-10-19T14:03:54.850Z,18.33
2018-10-19T14:06:23.375Z,17.97
2018-10-19T14:08:51.910Z,16.90
2018-10-19T14:11:20.482Z,16.07
2018-10-19T14:13:49.022Z,15.20
2018-10-19T14:16:17.568Z,15.47
2018-10-19T14:18:46.498Z,13.33
2018-10-19T14:21:15.175Z,14.97
2018-10-19T14:23:43.840Z,14.83
2018-10-19T14:26:12.550Z,17.60
2018-10-19T14:28:41.217Z,15.57
2018-10-19T14:31:09.771Z,15.30
2018-10-19T14:33:38.399Z,15.20
2018-10-19T14:36:06.927Z,13.67
2018-10-19T14:38:35.475Z,15.27
2018-10-19T14:41:04.019Z,14.57
2018-10-19T14:43:32.540Z,16.40
2018-10-19T14:46:01.048Z,16.33
2018-10-19T14:48:29.626Z,16.90
2018-10-19T14:50:58.163Z,16.20
2018-10-19T14:53:26.772Z,16.00
2018-10-19T14:55:55.332Z,14.00
2018-10-19T14:58:23.872Z,16.67
2018-10-19T15:00:52.433Z,15.87
2018-10-19T15:03:20.974Z,17.27
2018-10-19T15:05:49.529Z,15.33
2018-10-19T15:08:18.109Z,15.67
2018-10-19T15:10:47.052Z,17.77
2018-10-19T15:13:15.378Z,14.87
2018-10-19T15:15:43.906Z,15.30
2018-10-19T15:18:12.511Z,17.57
2018-10-19T15:20:40.957Z,15.20
2018-10-19T15:23:09.499Z,15.07
2018-10-19T15:25:38.039Z,14.93
2018-10-19T15:28:06.559Z,16.60
2018-10-19T15:30:35.195Z,15.80
2018-10-19T15:33:03.929Z,15.23
2018-10-19T15:35:32.461Z,18.53
2018-10-19T15:38:01.089Z,15.13
2018-10-19T15:40:29.634Z,17.40
2018-10-19T15:42:58.178Z,15.87
2018-10-19T15:45:26.861Z,14.00
2018-10-19T15:47:55.532Z,15.83
2018-10-19T15:50:24.025Z,16.37
2018-10-19T15:52:52.578Z,14.67
2018-10-19T15:55:21.141Z,18.03
2018-10-19T15:57:49.657Z,14.87
2018-10-19T16:00:18.312Z,16.93
2018-10-19T16:02:46.894Z,17.37
2018-10-19T16:05:15.438Z,17.70
2018-10-19T16:07:43.928Z,15.93
2018-10-19T16:10:12.480Z,19.17
2018-10-19T16:12:41.024Z,17.93
2018-10-19T16:15:10.429Z,21.03
2018-10-19T16:17:38.971Z,16.73
2018-10-19T16:20:09.049Z,18.77
2018-10-19T16:22:38.000Z,17.00
2018-10-19T16:25:07.053Z,16.20
2018-10-19T16:27:36.070Z,15.50
2018-10-19T16:30:05.199Z,16.43
2018-10-19T16:32:33.738Z,16.70
2018-10-19T16:35:02.248Z,16.03
2018-10-19T16:37:30.881Z,15.83
2018-10-19T16:39:59.458Z,16.33
2018-10-19T16:42:27.988Z,13.97
2018-10-19T16:44:56.520Z,17.10
2018-10-19T16:47:25.087Z,15.07
2018-10-19T16:49:53.580Z,13.97
2018-10-19T16:52:22.301Z,17.13
2018-10-19T16:54:50.905Z,17.67
2018-10-19T16:57:19.478Z,16.90
2018-10-19T16:59:48.028Z,15.00
2018-10-19T17:02:16.562Z,16.07
2018-10-19T17:04:45.116Z,16.67
2018-10-19T17:07:13.654Z,16.97
2018-10-19T17:09:42.208Z,17.43
2018-10-19T17:12:10.797Z,16.40
2018-10-19T17:14:39.301Z,17.90
2018-10-19T17:17:07.846Z,17.87
2018-10-19T17:19:36.369Z,16.37
2018-10-19T17:22:05.383Z,15.10
2018-10-19T17:24:33.962Z,14.60
2018-10-19T17:27:02.568Z,15.40
2018-10-19T17:29:31.050Z,16.73
2018-10-19T17:31:59.601Z,15.70
2018-10-19T17:34:28.117Z,19.30
2018-10-19T17:36:56.798Z,18.83
2018-10-19T17:39:25.326Z,16.00
2018-10-19T17:41:53.917Z,15.90
2018-10-19T17:44:45.671Z,14.40
2018-10-19T17:47:14.306Z,21.43
2018-10-19T17:49:42.828Z,15.60
2018-10-19T17:52:11.350Z,17.00
2018-10-19T17:54:39.937Z,17.90
2018-10-19T17:57:08.704Z,20.43
2018-10-19T17:59:37.214Z,16.37
2018-10-19T18:02:05.959Z,17.07
2018-10-19T18:04:34.556Z,14.63
2018-10-19T18:07:03.169Z,19.97
2018-10-19T18:09:31.694Z,15.43
2018-10-19T18:12:00.200Z,17.23
2018-10-19T18:14:28.699Z,16.30
2018-10-19T18:16:57.271Z,17.73
2018-10-19T18:19:25.807Z,15.70
2018-10-19T18:21:54.570Z,14.57
2018-10-19T18:24:23.046Z,17.60
2018-10-19T18:26:51.536Z,16.27
2018-10-19T18:29:20.154Z,21.57
2018-10-19T18:31:48.678Z,16.13
2018-10-19T18:34:17.217Z,16.47
2018-10-19T18:36:45.744Z,18.43
2018-10-19T18:39:14.824Z,18.77
2018-10-19T18:41:43.983Z,19.17
2018-10-19T18:44:12.777Z,20.27
2018-10-19T18:46:41.343Z,17.70
2018-10-19T18:49:09.943Z,18.80
2018-10-19T18:51:38.491Z,18.67
2018-10-19T18:54:07.085Z,20.93
2018-10-19T18:56:35.578Z,18.47
2018-10-19T18:59:04.158Z,19.60
2018-10-19T19:01:32.717Z,17.20
2018-10-19T19:04:01.301Z,17.30
2018-10-19T19:06:29.873Z,17.30
2018-10-19T19:08:58.431Z,18.20
2018-10-19T19:11:26.943Z,17.07
2018-10-19T19:13:55.504Z,16.17
2018-10-19T19:16:30.898Z,17.43
2018-10-19T19:18:59.456Z,16.57
2018-10-19T19:21:28.025Z,18.57
2018-10-19T19:24:01.776Z,16.60
2018-10-19T19:26:30.393Z,19.20
2018-10-19T19:28:59.147Z,18.70
2018-10-19T19:31:27.611Z,17.50
2018-10-19T19:34:01.523Z,16.83
2018-10-19T19:36:30.170Z,19.10
2018-10-19T19:38:58.679Z,18.40
2018-10-19T19:41:32.535Z,16.83
2018-10-19T19:44:01.083Z,17.87
2018-10-19T19:46:30.467Z,18.03
2018-10-19T19:49:04.318Z,20.10
2018-10-19T19:51:33.610Z,18.60
2018-10-19T19:54:02.138Z,19.70
2018-10-19T19:56:30.671Z,18.53
2018-10-19T19:58:59.249Z,20.80
2018-10-19T20:01:27.847Z,19.13
2018-10-19T20:03:56.745Z,18.53
2018-10-19T20:06:25.312Z,22.87
2018-10-19T20:08:53.806Z,18.03
2018-10-19T20:11:22.355Z,18.43
2018-10-19T20:13:50.898Z,22.83
2018-10-19T20:16:19.462Z,21.33
2018-10-19T20:18:47.987Z,17.93
2018-10-19T20:21:16.504Z,19.80
2018-10-19T20:23:45.037Z,20.07
2018-10-19T20:26:13.613Z,16.67
2018-10-19T20:28:42.073Z,17.73
2018-10-19T20:31:10.551Z,16.20
2018-10-19T20:33:39.093Z,18.43
2018-10-19T20:36:07.599Z,19.13
2018-10-19T20:38:36.099Z,18.40
2018-10-19T20:41:05.013Z,22.00
2018-10-19T20:43:33.519Z,16.80
2018-10-19T20:46:02.041Z,18.80
2018-10-19T20:48:30.588Z,23.23
2018-10-19T20:50:59.121Z,17.33
2018-10-19T20:53:27.638Z,18.43
2018-10-19T20:55:56.231Z,17.40
2018-10-19T20:58:24.686Z,17.87
2018-10-19T21:00:53.305Z,15.70
2018-10-19T21:03:21.728Z,19.17
2018-10-19T21:05:50.234Z,20.27
2018-10-19T21:08:18.744Z,18.03
2018-10-19T21:10:47.265Z,20.40
2018-10-19T21:13:15.785Z,16.43
2018-10-19T21:15:44.332Z,22.13
2018-10-19T21:18:12.936Z,17.17
2018-10-19T21:20:41.456Z,17.53
2018-10-19T21:23:09.979Z,23.20
2018-10-19T21:25:41.628Z,19.37
2018-10-19T21:28:10.144Z,20.40
2018-10-19T21:30:38.672Z,15.23
2018-10-19T21:33:07.242Z,20.63
2018-10-19T21:35:35.766Z,19.00
2018-10-19T21:38:04.327Z,17.70
2018-10-19T21:40:32.918Z,18.53
2018-10-19T21:43:02.485Z,17.10
2018-10-19T21:45:31.029Z,18.73
2018-10-19T21:47:59.549Z,18.37
2018-10-19T21:50:28.108Z,17.13
2018-10-19T21:52:56.639Z,20.93
2018-10-19T21:55:25.304Z,18.73
2018-10-19T21:57:53.833Z,16.43
2018-10-19T22:00:22.457Z,18.93
2018-10-19T22:02:50.934Z,16.77
2018-10-19T22:05:19.484Z,16.73
2018-10-19T22:07:47.991Z,17.67
2018-10-19T22:10:16.813Z,19.47
2018-10-19T22:12:45.379Z,18.77
2018-10-19T22:15:13.877Z,15.67
2018-10-19T22:17:42.385Z,16.23
2018-10-19T22:20:10.898Z,17.37
2018-10-19T22:22:39.503Z,19.37
2018-10-19T22:25:08.138Z,16.13
2018-10-19T22:27:36.667Z,17.57
2018-10-19T22:30:06.305Z,18.40
2018-10-19T22:32:35.075Z,16.93
2018-10-19T22:35:03.725Z,18.50
2018-10-19T22:37:32.299Z,15.80
2018-10-19T22:40:00.824Z,16.03
2018-10-19T22:42:29.326Z,20.67
2018-10-19T22:44:57.894Z,19.03
2018-10-19T22:47:26.388Z,17.90
2018-10-19T22:49:54.894Z,18.90
2018-10-19T22:52:23.398Z,16.90
2018-10-19T22:54:52.239Z,16.93
2018-10-19T22:57:20.792Z,22.80
2018-10-19T22:59:49.431Z,20.90
2018-10-19T23:02:17.975Z,17.63
2018-10-19T23:04:46.450Z,22.63
2018-10-19T23:07:21.748Z,18.00
2018-10-19T23:09:50.243Z,19.07
2018-10-19T23:12:18.873Z,19.33
2018-10-19T23:14:47.519Z,21.83
2018-10-19T23:17:16.658Z,20.07
2018-10-19T23:19:45.158Z,20.07
2018-10-19T23:22:13.656Z,22.83
2018-10-19T23:24:42.172Z,15.73
2018-10-19T23:27:10.676Z,19.17
2018-10-19T23:29:39.528Z,20.83
2018-10-19T23:32:08.055Z,17.30
2018-10-19T23:34:36.642Z,19.70
2018-10-19T23:37:05.854Z,20.23
2018-10-19T23:39:34.364Z,19.17
2018-10-19T23:42:02.878Z,20.53
2018-10-19T23:44:31.397Z,20.20
2018-10-19T23:46:59.949Z,20.50
2018-10-19T23:49:28.633Z,17.20
2018-10-19T23:51:57.140Z,18.20
2018-10-19T23:54:25.645Z,20.93
2018-10-19T23:56:54.192Z,21.03
2018-10-19T23:59:22.732Z,17.80
